Time,TemperatureF,DewpointF,PressureIn,WindDirection,WindDirectionDegrees,WindSpeedMPH,WindSpeedGustMPH,Humidity,HourlyPrecipIn,Conditions,Clouds,dailyrainin,SoftwareType,DateUTC
2013-02-03 00:04:00,0.7,-8.7,29.35,NNW,338,3.8,4.6,64,0.00,CLR,,0.00,WeatherDisplay:10.37,2013-02-03 09:04:00,
2013-02-03 00:09:00,0.7,-8.7,29.32,NNE,22,3.8,4.6,64,0.00,CLR,,0.00,WeatherDisplay:10.37,2013-02-03 09:09:00,
2013-02-03 00:14:00,0.9,-8.5,29.32,North,0,6.7,9.2,64,0.00,CLR,,0.00,WeatherDisplay:10.37,2013-02-03 09:14:00,
2013-02-03 00:19:00,1.2,-8.1,29.32,WNW,292,8.7,11.5,64,0.00,CLR,,0.00,WeatherDisplay:10.37,2013-02-03 09:19:00,
2013-02-03 00:24:00,1.2,-8.1,29.32,South,180,3.1,3.5,64,0.00,CLR,,0.00,WeatherDisplay:10.37,2013-02-03 09:24:00,
2013-02-03 00:29:00,1.2,-8.1,29.32,ESE,112,6.9,9.2,64,0.00,CLR,,0.00,WeatherDisplay:10.37,2013-02-03 09:29:00,
2013-02-03 00:34:00,1.2,-8.1,29.32,East,90,3.8,4.6,64,0.00,CLR,,0.00,WeatherDisplay:10.37,2013-02-03 09:34:00,
2013-02-03 00:39:00,1.2,-8.1,29.32,NW,315,5.6,6.9,64,0.00,CLR,,0.00,WeatherDisplay:10.37,2013-02-03 09:39:00,
2013-02-03 00:44:00,1.2,-8.1,29.32,ENE,68,3.8,4.6,64,0.00,CLR,,0.00,WeatherDisplay:10.37,2013-02-03 09:44:00,
2013-02-03 00:49:00,1.2,-8.1,29.32,SSW,202,4.0,4.6,64,0.00,CLR,,0.00,WeatherDisplay:10.37,2013-02-03 09:49:00,
2013-02-03 00:54:00,1.2,-8.1,29.32,NNE,22,2.9,2.9,64,0.00,CLR,,0.00,WeatherDisplay:10.37,2013-02-03 09:54:00,
2013-02-03 00:59:00,1.2,-8.1,29.32,NNE,22,2.6,4.6,64,0.00,CLR,,0.00,WeatherDisplay:10.37,2013-02-03 09:59:00,
2013-02-03 01:04:00,1.0,-8.3,29.32,NE,45,2.2,3.5,64,0.00,CLR,,0.00,WeatherDisplay:10.37,2013-02-03 10:04:00,
2013-02-03 01:09:00,1.2,-8.1,29.29,NNW,338,2.6,4.6,64,0.00,CLR,,0.00,WeatherDisplay:10.37,2013-02-03 10:09:00,
2013-02-03 01:14:00,1.2,-8.1,29.29,West,270,3.8,5.8,64,0.00,CLR,,0.00,WeatherDisplay:10.37,2013-02-03 10:14:00,
2013-02-03 01:19:00,1.4,-8.0,29.29,SSE,158,3.6,5.8,64,0.00,CLR,,0.00,WeatherDisplay:10.37,2013-02-03 10:19:00,
2013-02-03 01:24:00,1.2,-8.1,29.32,North,0,2.6,3.5,64,0.00,CLR,,0.00,WeatherDisplay:10.37,2013-02-03 10:24:00,
2013-02-03 01:29:00,1.6,-7.8,29.32,ENE,68,5.9,5.9,64,0.00,CLR,,0.00,WeatherDisplay:10.37,2013-02-03 10:29:00,
2013-02-03 01:34:00,1.8,-7.6,29.32,NW,315,2.6,4.6,64,0.00,CLR,,0.00,WeatherDisplay:10.37,2013-02-03 10:34:00,
2013-02-03 01:39:00,1.9,-7.5,29.29,NNE,22,2.9,3.5,64,0.00,CLR,,0.00,WeatherDisplay:10.37,2013-02-03 10:39:00,
2013-02-03 01:44:00,1.9,-7.5,29.29,NNW,338,0.0,2.3,64,0.00,CLR,,0.00,WeatherDisplay:10.37,2013-02-03 10:44:00,
2013-02-03 01:49:00,1.9,-7.5,29.29,ENE,68,3.3,4.6,64,0.00,CLR,,0.00,WeatherDisplay:10.37,2013-02-03 10:49:00,
2013-02-03 01:54:00,1.9,-7.5,29.29,NE,45,2.9,8.1,64,0.00,CLR,,0.00,WeatherDisplay:10.37,2013-02-03 10:54:00,
2013-02-03 01:59:00,1.9,-7.5,29.29,NNE,22,2.2,2.3,64,0.00,CLR,,0.00,WeatherDisplay:10.37,2013-02-03 10:59:00,
2013-02-03 02:04:00,1.8,-7.6,29.29,NNE,22,2.9,3.5,64,0.00,CLR,,0.00,WeatherDisplay:10.37,2013-02-03 11:04:00,
2013-02-03 02:09:00,1.8,-7.6,29.26,NNW,338,3.1,5.8,64,0.00,CLR,,0.00,WeatherDisplay:10.37,2013-02-03 11:09:00,
2013-02-03 02:14:00,1.8,-7.6,29.26,North,0,6.0,6.0,64,0.00,CLR,,0.00,WeatherDisplay:10.37,2013-02-03 11:14:00,
2013-02-03 02:20:00,1.9,-7.5,29.26,NNE,22,5.6,5.6,64,0.00,CLR,,0.00,WeatherDisplay:10.37,2013-02-03 11:20:00,
2013-02-03 02:25:00,1.9,-7.5,29.29,North,0,1.6,4.6,64,0.00,CLR,,0.00,WeatherDisplay:10.37,2013-02-03 11:25:00,
2013-02-03 02:30:00,2.3,-7.1,29.29,NNW,338,3.1,6.9,64,0.00,CLR,,0.00,WeatherDisplay:10.37,2013-02-03 11:30:00,
2013-02-03 02:35:00,2.5,-6.9,29.29,ESE,112,2.2,4.6,64,0.00,CLR,,0.00,WeatherDisplay:10.37,2013-02-03 11:35:00,
2013-02-03 02:40:00,2.8,-6.6,29.29,SSW,202,2.4,4.6,64,0.00,CLR,,0.00,WeatherDisplay:10.37,2013-02-03 11:40:00,
2013-02-03 02:45:00,3.2,-6.2,29.29,NNE,22,2.4,5.9,64,0.00,CLR,,0.00,WeatherDisplay:10.37,2013-02-03 11:45:00,
2013-02-03 02:50:00,3.2,-6.2,29.29,South,180,4.0,4.6,64,0.00,CLR,,0.00,WeatherDisplay:10.37,2013-02-03 11:50:00,
2013-02-03 02:55:00,3.2,-6.2,29.29,East,90,2.6,3.5,64,0.00,CLR,,0.00,WeatherDisplay:10.37,2013-02-03 11:55:00,
2013-02-03 03:00:00,3.0,-6.4,29.29,East,90,1.1,4.6,64,0.00,CLR,,0.00,WeatherDisplay:10.37,2013-02-03 12:00:00,
2013-02-03 03:05:00,2.7,-6.8,29.29,NNE,22,0.9,1.1,64,0.00,CLR,,0.00,WeatherDisplay:10.37,2013-02-03 12:05:00,
2013-02-03 03:10:00,2.3,-7.1,29.29,NNE,22,2.0,3.5,64,0.00,CLR,,0.00,WeatherDisplay:10.37,2013-02-03 12:10:00,
2013-02-03 03:15:00,1.9,-7.5,29.29,East,90,2.4,2.4,64,0.00,CLR,,0.00,WeatherDisplay:10.37,2013-02-03 12:15:00,
2013-02-03 03:20:00,1.6,-7.8,29.29,NE,45,2.2,2.3,64,0.00,CLR,,0.00,WeatherDisplay:10.37,2013-02-03 12:20:00,
2013-02-03 03:25:00,1.2,-8.1,29.29,NNE,22,1.6,2.3,64,0.00,CLR,,0.00,WeatherDisplay:10.37,2013-02-03 12:25:00,
2013-02-03 03:30:00,0.9,-8.5,29.29,ENE,68,1.1,2.3,64,0.00,CLR,,0.00,WeatherDisplay:10.37,2013-02-03 12:30:00,
2013-02-03 03:35:00,0.7,-8.7,29.29,ENE,68,1.6,2.3,64,0.00,CLR,,0.00,WeatherDisplay:10.37,2013-02-03 12:35:00,
2013-02-03 03:40:00,0.5,-8.8,29.29,ENE,68,1.1,2.3,64,0.00,CLR,,0.00,WeatherDisplay:10.37,2013-02-03 12:40:00,
2013-02-03 03:45:00,0.3,-9.0,29.29,NW,315,0.0,0.0,64,0.00,CLR,,0.00,WeatherDisplay:10.37,2013-02-03 12:45:00,
2013-02-03 03:50:00,0.1,-9.2,29.29,NNW,338,3.6,4.6,64,0.00,CLR,,0.00,WeatherDisplay:10.37,2013-02-03 12:50:00,
2013-02-03 03:55:00,0.3,-9.0,29.26,North,0,4.0,4.6,64,0.00,CLR,,0.00,WeatherDisplay:10.37,2013-02-03 12:55:00,
2013-02-03 04:00:00,0.7,-8.7,29.26,NNW,338,5.4,6.9,64,0.00,CLR,,0.00,WeatherDisplay:10.37,2013-02-03 13:00:00,
2013-02-03 04:05:00,1.2,-8.1,29.26,NNE,22,3.3,6.9,64,0.00,CLR,,0.00,WeatherDisplay:10.37,2013-02-03 13:05:00,
2013-02-03 04:10:00,1.2,-8.1,29.26,NNW,338,1.4,3.5,64,0.00,CLR,,0.00,WeatherDisplay:10.37,2013-02-03 13:10:00,
2013-02-03 04:15:00,1.4,-8.0,29.26,NNW,338,2.9,4.9,64,0.00,CLR,,0.00,WeatherDisplay:10.37,2013-02-03 13:15:00,
2013-02-03 04:20:00,1.6,-7.8,29.26,NNW,338,4.9,5.8,64,0.00,CLR,,0.00,WeatherDisplay:10.37,2013-02-03 13:20:00,
2013-02-03 04:25:00,1.8,-7.6,29.26,NNW,338,4.7,5.8,64,0.00,CLR,,0.00,WeatherDisplay:10.37,2013-02-03 13:25:00,
2013-02-03 04:30:00,1.9,-7.5,29.26,NNW,338,3.8,6.9,64,0.00,CLR,,0.00,WeatherDisplay:10.37,2013-02-03 13:30:00,
2013-02-03 04:35:00,1.9,-7.5,29.26,NNW,338,4.3,4.6,64,0.00,CLR,,0.00,WeatherDisplay:10.37,2013-02-03 13:35:00,
2013-02-03 04:40:00,1.9,-7.5,29.26,NNW,338,4.5,5.8,64,0.00,CLR,,0.00,WeatherDisplay:10.37,2013-02-03 13:40:00,
2013-02-03 04:45:00,1.9,-7.5,29.26,North,0,3.3,4.6,64,0.00,CLR,,0.00,WeatherDisplay:10.37,2013-02-03 13:45:00,
2013-02-03 04:50:00,1.9,-7.5,29.26,NW,315,3.1,3.5,64,0.00,CLR,,0.00,WeatherDisplay:10.37,2013-02-03 13:50:00,
2013-02-03 04:55:00,1.9,-7.5,29.26,NW,315,2.6,3.5,64,0.00,CLR,,0.00,WeatherDisplay:10.37,2013-02-03 13:55:00,
2013-02-03 05:00:00,2.1,-7.3,29.26,NNW,338,0.9,1.1,64,0.00,CLR,,0.00,WeatherDisplay:10.37,2013-02-03 14:00:00,
2013-02-03 05:05:00,2.1,-7.3,29.26,NW,315,0.9,1.1,64,0.00,CLR,,0.00,WeatherDisplay:10.37,2013-02-03 14:05:00,
2013-02-03 05:10:00,2.3,-7.1,29.26,NNW,338,2.6,3.5,64,0.00,CLR,,0.00,WeatherDisplay:10.37,2013-02-03 14:10:00,
2013-02-03 05:15:00,2.3,-7.1,29.26,NNW,338,2.6,3.5,64,0.00,CLR,,0.00,WeatherDisplay:10.37,2013-02-03 14:15:00,
2013-02-03 05:20:00,2.5,-6.9,29.26,NW,315,2.0,2.3,64,0.00,CLR,,0.00,WeatherDisplay:10.37,2013-02-03 14:20:00,
2013-02-03 05:25:00,2.5,-6.9,29.26,NNW,338,2.0,3.5,64,0.00,CLR,,0.00,WeatherDisplay:10.37,2013-02-03 14:25:00,
2013-02-03 05:30:00,2.5,-6.9,29.26,NNE,22,1.1,0.0,64,0.00,CLR,,0.00,WeatherDisplay:10.37,2013-02-03 14:30:00,
2013-02-03 05:35:00,2.5,-6.9,29.26,NW,315,0.9,2.3,64,0.00,CLR,,0.00,WeatherDisplay:10.37,2013-02-03 14:35:00,
2013-02-03 05:40:00,2.5,-6.9,29.23,NW,315,2.6,3.5,64,0.00,CLR,,0.00,WeatherDisplay:10.37,2013-02-03 14:40:00,
2013-02-03 05:45:00,2.7,-6.8,29.23,NNW,338,2.0,2.3,64,0.00,CLR,,0.00,WeatherDisplay:10.37,2013-02-03 14:45:00,
2013-02-03 05:50:00,2.8,-6.6,29.23,NW,315,2.4,2.4,64,0.00,CLR,,0.00,WeatherDisplay:10.37,2013-02-03 14:50:00,
2013-02-03 05:55:00,2.8,-6.6,29.23,NW,315,0.0,2.3,64,0.00,CLR,,0.00,WeatherDisplay:10.37,2013-02-03 14:55:00,
2013-02-03 06:00:00,2.8,-6.6,29.23,WNW,292,1.4,2.3,64,0.00,CLR,,0.00,WeatherDisplay:10.37,2013-02-03 15:00:00,
2013-02-03 06:05:00,2.8,-6.6,29.23,NW,315,1.1,1.1,64,0.00,CLR,,0.00,WeatherDisplay:10.37,2013-02-03 15:05:00,
2013-02-03 06:10:00,3.0,-6.4,29.23,NW,315,0.0,0.0,64,0.00,CLR,,0.00,WeatherDisplay:10.37,2013-02-03 15:10:00,
2013-02-03 06:15:00,3.0,-6.4,29.23,NE,45,0.0,0.0,64,0.00,CLR,,0.00,WeatherDisplay:10.37,2013-02-03 15:15:00,
2013-02-03 06:20:00,3.2,-6.2,29.23,NNW,338,0.0,1.1,64,0.00,CLR,,0.00,WeatherDisplay:10.37,2013-02-03 15:20:00,
2013-02-03 06:25:00,3.2,-6.2,29.23,NNW,338,0.9,2.3,64,0.00,CLR,,0.00,WeatherDisplay:10.37,2013-02-03 15:25:00,
2013-02-03 06:30:00,3.2,-6.2,29.23,NNW,338,1.1,2.3,64,0.00,CLR,,0.00,WeatherDisplay:10.37,2013-02-03 15:30:00,
2013-02-03 06:35:00,3.2,-6.2,29.23,NNW,338,1.6,2.3,64,0.00,CLR,,0.00,WeatherDisplay:10.37,2013-02-03 15:35:00,
2013-02-03 06:40:00,3.4,-6.1,29.23,NW,315,1.1,1.1,64,0.00,CLR,,0.00,WeatherDisplay:10.37,2013-02-03 15:40:00,
2013-02-03 06:45:00,3.4,-6.1,29.23,NNE,22,1.6,2.3,64,0.00,CLR,,0.00,WeatherDisplay:10.37,2013-02-03 15:45:00,
2013-02-03 06:50:00,3.4,-6.1,29.23,NNE,22,0.9,2.3,64,0.00,CLR,,0.00,WeatherDisplay:10.37,2013-02-03 15:50:00,
2013-02-03 06:55:00,3.6,-5.9,29.23,NNE,22,0.0,3.5,64,0.00,CLR,,0.00,WeatherDisplay:10.37,2013-02-03 15:55:00,
2013-02-03 07:01:00,3.6,-5.9,29.23,NNE,22,0.0,0.0,64,0.00,CLR,,0.00,WeatherDisplay:10.37,2013-02-03 16:01:00,
2013-02-03 07:06:00,3.6,-5.9,29.23,ENE,68,1.4,2.3,64,0.00,CLR,,0.00,WeatherDisplay:10.37,2013-02-03 16:06:00,
2013-02-03 07:11:00,3.7,-5.7,29.23,ENE,68,1.1,1.1,64,0.00,CLR,,0.00,WeatherDisplay:10.37,2013-02-03 16:11:00,
2013-02-03 07:16:00,3.7,-5.7,29.23,ENE,68,1.6,2.3,64,0.00,CLR,,0.00,WeatherDisplay:10.37,2013-02-03 16:16:00,
2013-02-03 07:21:00,3.7,-5.7,29.23,East,90,0.9,2.0,64,0.00,CLR,,0.00,WeatherDisplay:10.37,2013-02-03 16:21:00,
2013-02-03 07:26:00,3.7,-5.7,29.23,NE,45,1.6,2.3,64,0.00,CLR,,0.00,WeatherDisplay:10.37,2013-02-03 16:26:00,
2013-02-03 07:31:00,3.9,-5.6,29.23,North,0,2.0,2.3,64,0.00,CLR,,0.00,WeatherDisplay:10.37,2013-02-03 16:31:00,
2013-02-03 07:36:00,3.9,-5.6,29.23,NNE,22,2.0,2.3,64,0.00,CLR,,0.00,WeatherDisplay:10.37,2013-02-03 16:36:00,
2013-02-03 07:41:00,4.1,-5.4,29.23,ENE,68,0.0,1.1,64,0.00,CLR,,0.00,WeatherDisplay:10.37,2013-02-03 16:41:00,
2013-02-03 07:46:00,4.1,-5.4,29.23,North,0,0.0,0.0,64,0.00,CLR,,0.00,WeatherDisplay:10.37,2013-02-03 16:46:00,
2013-02-03 07:51:00,4.1,-5.4,29.23,NE,45,0.0,1.1,64,0.00,CLR,,0.00,WeatherDisplay:10.37,2013-02-03 16:51:00,
2013-02-03 07:56:00,4.1,-5.4,29.23,NNE,22,0.0,0.0,64,0.00,CLR,,0.00,WeatherDisplay:10.37,2013-02-03 16:56:00,
2013-02-03 08:01:00,4.1,-5.4,29.23,NE,45,0.9,2.3,64,0.00,CLR,,0.00,WeatherDisplay:10.37,2013-02-03 17:01:00,
2013-02-03 08:06:00,4.1,-5.4,29.23,North,0,1.1,2.3,64,0.00,CLR,,0.00,WeatherDisplay:10.37,2013-02-03 17:06:00,
2013-02-03 08:11:00,4.1,-5.4,29.20,NE,45,0.0,1.1,64,0.00,CLR,,0.00,WeatherDisplay:10.37,2013-02-03 17:11:00,
2013-02-03 08:16:00,4.1,-5.4,29.20,ENE,68,0.0,0.0,64,0.00,CLR,,0.00,WeatherDisplay:10.37,2013-02-03 17:16:00,
2013-02-03 08:21:00,4.1,-5.4,29.20,NNE,22,0.0,2.3,64,0.00,CLR,,0.00,WeatherDisplay:10.37,2013-02-03 17:21:00,
2013-02-03 08:26:00,4.3,-5.2,29.20,NNW,338,0.0,0.0,64,0.00,CLR,,0.00,WeatherDisplay:10.37,2013-02-03 17:26:00,
2013-02-03 08:31:00,4.5,-5.0,29.20,NNW,338,1.6,2.3,64,0.00,CLR,,0.00,WeatherDisplay:10.37,2013-02-03 17:31:00,
2013-02-03 08:36:00,4.6,-4.9,29.20,NE,45,2.6,3.5,64,0.00,CLR,,0.00,WeatherDisplay:10.37,2013-02-03 17:36:00,
2013-02-03 08:41:00,4.8,-4.7,29.20,North,0,0.0,2.3,64,0.00,CLR,,0.00,WeatherDisplay:10.37,2013-02-03 17:41:00,
2013-02-03 08:46:00,5.0,-4.5,29.20,NNE,22,1.4,2.3,64,0.00,CLR,,0.00,WeatherDisplay:10.37,2013-02-03 17:46:00,
2013-02-03 08:51:00,5.0,-4.5,29.20,NNW,338,0.0,1.1,64,0.00,CLR,,0.00,WeatherDisplay:10.37,2013-02-03 17:51:00,
2013-02-03 08:56:00,5.0,-4.5,29.17,North,0,2.4,3.5,64,0.00,CLR,,0.00,WeatherDisplay:10.37,2013-02-03 17:56:00,
2013-02-03 09:01:00,5.0,-4.5,29.17,NNE,22,2.0,2.3,64,0.00,CLR,,0.00,WeatherDisplay:10.37,2013-02-03 18:01:00,
2013-02-03 09:06:00,5.0,-4.5,29.17,NNW,338,2.0,2.3,64,0.00,CLR,,0.00,WeatherDisplay:10.37,2013-02-03 18:06:00,
2013-02-03 09:11:00,5.2,-4.4,29.17,North,0,3.3,3.5,64,0.00,CLR,,0.00,WeatherDisplay:10.37,2013-02-03 18:11:00,
2013-02-03 09:16:00,5.4,-4.2,29.17,NNW,338,1.4,2.3,64,0.00,CLR,,0.00,WeatherDisplay:10.37,2013-02-03 18:16:00,
2013-02-03 09:21:00,5.4,-4.2,29.17,NNE,22,3.1,4.6,64,0.00,CLR,,0.00,WeatherDisplay:10.37,2013-02-03 18:21:00,
2013-02-03 09:26:00,5.5,-4.0,29.17,NNW,338,3.6,4.6,64,0.00,CLR,,0.00,WeatherDisplay:10.37,2013-02-03 18:26:00,
2013-02-03 09:31:00,5.7,-3.8,29.17,NNE,22,2.9,4.0,64,0.00,CLR,,0.00,WeatherDisplay:10.37,2013-02-03 18:31:00,
2013-02-03 09:36:00,5.9,-3.7,29.17,NNE,22,4.5,4.6,64,0.00,CLR,,0.00,WeatherDisplay:10.37,2013-02-03 18:36:00,
2013-02-03 09:41:00,5.9,-3.7,29.14,NNW,338,3.6,4.6,64,0.00,CLR,,0.00,WeatherDisplay:10.37,2013-02-03 18:41:00,
2013-02-03 09:46:00,6.1,-3.5,29.14,North,0,4.3,6.9,64,0.00,CLR,,0.00,WeatherDisplay:10.37,2013-02-03 18:46:00,
2013-02-03 09:51:00,6.1,-3.5,29.14,NNE,22,3.1,4.6,64,0.00,CLR,,0.00,WeatherDisplay:10.37,2013-02-03 18:51:00,
2013-02-03 09:56:00,6.1,-3.5,29.17,North,0,4.3,5.8,64,0.00,CLR,,0.00,WeatherDisplay:10.37,2013-02-03 18:56:00,
2013-02-03 10:01:00,6.1,-3.5,29.17,NNW,338,5.9,8.1,64,0.00,CLR,,0.00,WeatherDisplay:10.37,2013-02-03 19:01:00,
2013-02-03 10:06:00,6.1,-3.5,29.17,North,0,2.9,4.6,64,0.00,CLR,,0.00,WeatherDisplay:10.37,2013-02-03 19:06:00,
2013-02-03 10:11:00,6.1,-3.5,29.14,NNE,22,3.3,4.6,64,0.00,CLR,,0.00,WeatherDisplay:10.37,2013-02-03 19:11:00,
2013-02-03 10:16:00,6.1,-3.5,29.14,NNE,22,3.3,5.8,64,0.00,CLR,,0.00,WeatherDisplay:10.37,2013-02-03 19:16:00,
2013-02-03 10:21:00,6.1,-3.5,29.14,North,0,5.4,5.8,64,0.00,CLR,,0.00,WeatherDisplay:10.37,2013-02-03 19:21:00,
2013-02-03 10:26:00,6.1,-3.5,29.14,NNW,338,4.3,5.8,64,0.00,CLR,,0.00,WeatherDisplay:10.37,2013-02-03 19:26:00,
2013-02-03 10:31:00,5.9,-3.7,29.14,NNE,22,3.3,4.6,64,0.00,CLR,,0.00,WeatherDisplay:10.37,2013-02-03 19:31:00,
2013-02-03 10:36:00,5.7,-3.8,29.14,NNE,22,2.4,3.5,64,0.00,CLR,,0.00,WeatherDisplay:10.37,2013-02-03 19:36:00,
2013-02-03 10:41:00,5.5,-4.0,29.14,NNW,338,3.3,5.8,64,0.00,CLR,,0.00,WeatherDisplay:10.37,2013-02-03 19:41:00,
2013-02-03 10:46:00,5.5,-4.0,29.14,NW,315,3.8,4.6,64,0.00,CLR,,0.00,WeatherDisplay:10.37,2013-02-03 19:46:00,
2013-02-03 10:51:00,5.4,-4.2,29.14,NNE,22,4.9,5.8,64,0.00,CLR,,0.00,WeatherDisplay:10.37,2013-02-03 19:51:00,
2013-02-03 10:56:00,5.4,-4.2,29.17,NNE,22,5.4,6.9,64,0.00,CLR,,0.00,WeatherDisplay:10.37,2013-02-03 19:56:00,
2013-02-03 11:01:00,5.4,-4.2,29.17,NNW,338,4.7,5.8,64,0.00,CLR,,0.00,WeatherDisplay:10.37,2013-02-03 20:01:00,
2013-02-03 11:06:00,5.4,-4.2,29.17,North,0,6.2,8.1,64,0.00,CLR,,0.00,WeatherDisplay:10.37,2013-02-03 20:06:00,
2013-02-03 11:11:00,5.2,-4.4,29.17,North,0,6.2,8.1,64,0.00,CLR,,0.00,WeatherDisplay:10.37,2013-02-03 20:11:00,
2013-02-03 11:16:00,5.0,-4.5,29.17,WNW,292,4.5,5.8,64,0.00,CLR,,0.00,WeatherDisplay:10.37,2013-02-03 20:16:00,
2013-02-03 11:21:00,5.2,-4.4,29.17,NNE,22,6.0,6.0,64,0.00,CLR,,0.00,WeatherDisplay:10.37,2013-02-03 20:21:00,
2013-02-03 11:26:00,5.2,-4.4,29.17,NW,315,6.0,8.1,64,0.00,CLR,,0.00,WeatherDisplay:10.37,2013-02-03 20:26:00,
2013-02-03 11:31:00,5.2,-4.4,29.17,NNE,22,3.1,5.8,64,0.00,CLR,,0.00,WeatherDisplay:10.37,2013-02-03 20:31:00,
2013-02-03 11:36:00,5.4,-4.2,29.17,NNW,338,5.6,5.8,64,0.00,CLR,,0.00,WeatherDisplay:10.37,2013-02-03 20:36:00,
2013-02-03 11:41:00,5.5,-4.0,29.17,NNW,338,3.3,9.2,64,0.00,CLR,,0.00,WeatherDisplay:10.37,2013-02-03 20:41:00,
2013-02-03 11:46:00,5.5,-4.0,29.17,NNW,338,6.4,8.1,64,0.00,CLR,,0.00,WeatherDisplay:10.37,2013-02-03 20:46:00,
2013-02-03 11:51:00,5.5,-4.0,29.17,NNE,22,4.9,8.1,64,0.00,CLR,,0.00,WeatherDisplay:10.37,2013-02-03 20:51:00,
2013-02-03 11:56:00,5.5,-4.0,29.17,NNW,338,3.3,3.5,64,0.00,CLR,,0.00,WeatherDisplay:10.37,2013-02-03 20:56:00,
2013-02-03 12:01:00,5.9,-3.7,29.17,ENE,68,6.9,8.1,64,0.00,CLR,,0.00,WeatherDisplay:10.37,2013-02-03 21:01:00,
2013-02-03 12:06:00,5.9,-3.7,29.17,NNW,338,5.4,5.8,64,0.00,CLR,,0.00,WeatherDisplay:10.37,2013-02-03 21:06:00,
2013-02-03 12:11:00,5.9,-3.7,29.14,NNE,22,3.1,6.9,64,0.00,CLR,,0.00,WeatherDisplay:10.37,2013-02-03 21:11:00,
2013-02-03 12:16:00,6.1,-3.5,29.14,NNW,338,3.8,5.8,64,0.00,CLR,,0.00,WeatherDisplay:10.37,2013-02-03 21:16:00,
2013-02-03 12:21:00,6.1,-3.5,29.14,North,0,6.0,6.0,64,0.00,CLR,,0.00,WeatherDisplay:10.37,2013-02-03 21:21:00,
2013-02-03 12:26:00,6.3,-3.3,29.17,NNW,338,5.9,8.1,64,0.00,CLR,,0.00,WeatherDisplay:10.37,2013-02-03 21:26:00,
2013-02-03 12:31:00,6.4,-3.2,29.17,NW,315,5.4,6.9,64,0.00,CLR,,0.00,WeatherDisplay:10.37,2013-02-03 21:31:00,
2013-02-03 12:37:00,6.4,-3.2,29.17,NNW,338,4.3,4.7,64,0.00,CLR,,0.00,WeatherDisplay:10.37,2013-02-03 21:37:00,
2013-02-03 12:42:00,6.6,-3.0,29.17,North,0,5.4,5.8,64,0.00,CLR,,0.00,WeatherDisplay:10.37,2013-02-03 21:42:00,
2013-02-03 12:47:00,6.4,-3.2,29.17,NNW,338,4.3,5.8,64,0.00,CLR,,0.00,WeatherDisplay:10.37,2013-02-03 21:47:00,
2013-02-03 12:52:00,6.6,-3.0,29.17,NW,315,3.8,5.8,64,0.00,CLR,,0.00,WeatherDisplay:10.37,2013-02-03 21:52:00,
2013-02-03 12:57:00,6.8,-2.8,29.17,NNW,338,4.3,5.8,64,0.00,CLR,,0.00,WeatherDisplay:10.37,2013-02-03 21:57:00,
2013-02-03 13:02:00,6.8,-2.8,29.17,North,0,4.3,5.8,64,0.00,CLR,,0.00,WeatherDisplay:10.37,2013-02-03 22:02:00,
2013-02-03 13:07:00,6.6,-3.0,29.17,NNW,338,4.0,5.8,64,0.00,CLR,,0.00,WeatherDisplay:10.37,2013-02-03 22:07:00,
2013-02-03 13:12:00,6.6,-3.0,29.17,North,0,3.3,4.6,64,0.00,CLR,,0.00,WeatherDisplay:10.37,2013-02-03 22:12:00,
2013-02-03 13:17:00,6.6,-3.0,29.17,NNE,22,4.5,5.8,64,0.00,CLR,,0.00,WeatherDisplay:10.37,2013-02-03 22:17:00,
2013-02-03 13:22:00,6.4,-3.2,29.17,NNE,22,3.1,4.6,64,0.00,CLR,,0.00,WeatherDisplay:10.37,2013-02-03 22:22:00,
2013-02-03 13:27:00,6.4,-3.2,29.17,NNE,22,2.6,3.5,64,0.00,CLR,,0.00,WeatherDisplay:10.37,2013-02-03 22:27:00,
2013-02-03 13:32:00,6.4,-3.2,29.17,NNE,22,3.6,4.6,64,0.00,CLR,,0.00,WeatherDisplay:10.37,2013-02-03 22:32:00,
2013-02-03 13:37:00,6.4,-3.2,29.17,North,0,0.0,2.3,64,0.00,CLR,,0.00,WeatherDisplay:10.37,2013-02-03 22:37:00,
2013-02-03 13:42:00,6.6,-3.0,29.17,NNW,338,3.1,4.6,64,0.00,CLR,,0.00,WeatherDisplay:10.37,2013-02-03 22:42:00,
2013-02-03 13:47:00,6.8,-2.8,29.17,NNE,22,2.2,3.5,64,0.00,CLR,,0.00,WeatherDisplay:10.37,2013-02-03 22:47:00,
2013-02-03 13:52:00,6.8,-2.8,29.17,NNW,338,0.9,1.1,64,0.00,CLR,,0.00,WeatherDisplay:10.37,2013-02-03 22:52:00,
2013-02-03 13:57:00,6.8,-2.8,29.17,WNW,292,1.4,2.3,64,0.00,CLR,,0.00,WeatherDisplay:10.37,2013-02-03 22:57:00,
2013-02-03 14:02:00,6.8,-2.8,29.17,NNE,22,1.1,2.3,64,0.00,CLR,,0.00,WeatherDisplay:10.37,2013-02-03 23:02:00,
2013-02-03 14:07:00,6.8,-2.8,29.17,NE,45,1.6,2.3,64,0.00,CLR,,0.00,WeatherDisplay:10.37,2013-02-03 23:07:00,
2013-02-03 14:12:00,6.8,-2.8,29.20,NNE,22,2.4,2.4,64,0.00,CLR,,0.00,WeatherDisplay:10.37,2013-02-03 23:12:00,
2013-02-03 14:17:00,6.8,-2.8,29.20,NNW,338,2.0,3.5,64,0.00,CLR,,0.00,WeatherDisplay:10.37,2013-02-03 23:17:00,
2013-02-03 14:22:00,6.6,-3.0,29.20,NNE,22,4.3,4.6,64,0.00,CLR,,0.00,WeatherDisplay:10.37,2013-02-03 23:22:00,
2013-02-03 14:27:00,6.4,-3.2,29.17,NNE,22,3.1,4.6,64,0.00,CLR,,0.00,WeatherDisplay:10.37,2013-02-03 23:27:00,
2013-02-03 14:32:00,6.4,-3.2,29.17,NNE,22,2.6,3.5,64,0.00,CLR,,0.00,WeatherDisplay:10.37,2013-02-03 23:32:00,
2013-02-03 14:37:00,6.4,-3.2,29.17,NE,45,2.6,3.5,64,0.00,CLR,,0.00,WeatherDisplay:10.37,2013-02-03 23:37:00,
2013-02-03 14:42:00,6.4,-3.2,29.20,NNE,22,0.0,1.1,64,0.00,CLR,,0.00,WeatherDisplay:10.37,2013-02-03 23:42:00,
2013-02-03 14:47:00,6.4,-3.2,29.20,ENE,68,0.9,1.1,64,0.00,CLR,,0.00,WeatherDisplay:10.37,2013-02-03 23:47:00,
2013-02-03 14:52:00,6.4,-3.2,29.20,NNE,22,1.1,2.3,64,0.00,CLR,,0.00,WeatherDisplay:10.37,2013-02-03 23:52:00,
2013-02-03 14:57:00,6.4,-3.2,29.20,North,0,0.0,0.0,64,0.00,CLR,,0.00,WeatherDisplay:10.37,2013-02-03 23:57:00,
2013-02-03 15:02:00,6.3,-3.3,29.20,East,90,2.2,3.5,64,0.00,CLR,,0.00,WeatherDisplay:10.37,2013-02-04 00:02:00,
2013-02-03 15:07:00,6.3,-3.3,29.20,ENE,68,2.9,3.5,64,0.00,CLR,,0.00,WeatherDisplay:10.37,2013-02-04 00:07:00,
2013-02-03 15:12:00,6.3,-3.3,29.20,ENE,68,0.0,1.1,64,0.00,CLR,,0.00,WeatherDisplay:10.37,2013-02-04 00:12:00,
2013-02-03 15:17:00,6.3,-3.3,29.20,NE,45,2.0,2.3,64,0.00,CLR,,0.00,WeatherDisplay:10.37,2013-02-04 00:17:00,
2013-02-03 15:22:00,6.3,-3.3,29.20,ENE,68,2.4,3.5,64,0.00,CLR,,0.00,WeatherDisplay:10.37,2013-02-04 00:22:00,
2013-02-03 15:27:00,6.3,-3.3,29.20,ESE,112,1.1,1.1,64,0.00,CLR,,0.00,WeatherDisplay:10.37,2013-02-04 00:27:00,
2013-02-03 15:32:00,6.1,-3.5,29.20,East,90,0.0,1.1,64,0.00,CLR,,0.00,WeatherDisplay:10.37,2013-02-04 00:32:00,
2013-02-03 15:37:00,6.1,-3.5,29.20,East,90,0.0,0.0,64,0.00,CLR,,0.00,WeatherDisplay:10.37,2013-02-04 00:37:00,
2013-02-03 15:42:00,6.1,-3.5,29.23,East,90,1.1,2.3,64,0.00,CLR,,0.00,WeatherDisplay:10.37,2013-02-04 00:42:00,
2013-02-03 15:47:00,5.9,-3.7,29.23,East,90,1.6,2.3,64,0.00,CLR,,0.00,WeatherDisplay:10.37,2013-02-04 00:47:00,
2013-02-03 15:52:00,5.7,-3.8,29.23,East,90,2.2,2.3,64,0.00,CLR,,0.00,WeatherDisplay:10.37,2013-02-04 00:52:00,
2013-02-03 15:57:00,5.5,-4.0,29.23,East,90,0.0,2.3,64,0.00,CLR,,0.00,WeatherDisplay:10.37,2013-02-04 00:57:00,
2013-02-03 16:02:00,5.5,-4.0,29.23,SE,135,0.0,0.0,64,0.00,CLR,,0.00,WeatherDisplay:10.37,2013-02-04 01:02:00,
2013-02-03 16:07:00,5.4,-4.2,29.23,ESE,112,0.0,0.0,64,0.00,CLR,,0.00,WeatherDisplay:10.37,2013-02-04 01:07:00,
2013-02-03 16:12:00,5.4,-4.2,29.23,SE,135,0.0,0.0,64,0.00,CLR,,0.00,WeatherDisplay:10.37,2013-02-04 01:12:00,
2013-02-03 16:17:00,5.4,-4.2,29.23,SSE,158,0.0,0.0,64,0.00,CLR,,0.00,WeatherDisplay:10.37,2013-02-04 01:17:00,
2013-02-03 16:22:00,5.4,-4.2,29.23,SE,135,0.0,0.0,64,0.00,CLR,,0.00,WeatherDisplay:10.37,2013-02-04 01:22:00,
2013-02-03 16:27:00,5.5,-4.0,29.23,ESE,112,0.0,0.0,64,0.00,CLR,,0.00,WeatherDisplay:10.37,2013-02-04 01:27:00,
2013-02-03 16:32:00,5.5,-4.0,29.23,SE,135,0.0,0.0,64,0.00,CLR,,0.00,WeatherDisplay:10.37,2013-02-04 01:32:00,
2013-02-03 16:37:00,5.5,-4.0,29.23,SSE,158,0.0,0.0,64,0.00,CLR,,0.00,WeatherDisplay:10.37,2013-02-04 01:37:00,
2013-02-03 16:42:00,5.5,-4.0,29.23,SSE,158,0.0,0.0,64,0.00,CLR,,0.00,WeatherDisplay:10.37,2013-02-04 01:42:00,
2013-02-03 16:47:00,5.5,-4.0,29.23,South,180,0.0,0.0,64,0.00,CLR,,0.00,WeatherDisplay:10.37,2013-02-04 01:47:00,
2013-02-03 16:52:00,5.7,-3.8,29.23,SSW,202,0.0,0.0,64,0.00,CLR,,0.00,WeatherDisplay:10.37,2013-02-04 01:52:00,
2013-02-03 16:58:00,5.7,-3.8,29.23,SSW,202,0.0,0.0,64,0.00,CLR,,0.00,WeatherDisplay:10.37,2013-02-04 01:58:00,
2013-02-03 17:03:00,5.7,-3.8,29.23,South,180,0.0,0.0,64,0.00,CLR,,0.00,WeatherDisplay:10.37,2013-02-04 02:03:00,
2013-02-03 17:08:00,5.7,-3.8,29.23,SSE,158,0.0,0.0,64,0.00,CLR,,0.00,WeatherDisplay:10.37,2013-02-04 02:08:00,
2013-02-03 17:13:00,5.9,-3.7,29.23,SSE,158,0.0,0.0,64,0.00,CLR,,0.00,WeatherDisplay:10.37,2013-02-04 02:13:00,
2013-02-03 17:18:00,5.9,-3.7,29.23,SSE,158,0.0,0.0,64,0.00,CLR,,0.00,WeatherDisplay:10.37,2013-02-04 02:18:00,
2013-02-03 17:23:00,5.9,-3.7,29.23,South,180,0.0,0.0,64,0.00,CLR,,0.00,WeatherDisplay:10.37,2013-02-04 02:23:00,
2013-02-03 17:28:00,5.9,-3.7,29.23,SSE,158,0.0,0.0,64,0.00,CLR,,0.00,WeatherDisplay:10.37,2013-02-04 02:28:00,
2013-02-03 17:33:00,5.9,-3.7,29.23,North,0,0.0,0.0,64,0.00,CLR,,0.00,WeatherDisplay:10.37,2013-02-04 02:33:00,
2013-02-03 17:38:00,6.1,-3.5,29.23,ESE,112,0.0,0.0,64,0.00,CLR,,0.00,WeatherDisplay:10.37,2013-02-04 02:38:00,
2013-02-03 17:43:00,6.1,-3.5,29.23,East,90,0.0,0.0,64,0.00,CLR,,0.00,WeatherDisplay:10.37,2013-02-04 02:43:00,
2013-02-03 17:48:00,6.1,-3.5,29.23,SSE,158,0.0,0.0,64,0.00,CLR,,0.00,WeatherDisplay:10.37,2013-02-04 02:48:00,
2013-02-03 17:53:00,6.1,-3.5,29.23,SSE,158,0.0,0.0,64,0.00,CLR,,0.00,WeatherDisplay:10.37,2013-02-04 02:53:00,
2013-02-03 17:58:00,6.1,-3.5,29.23,ESE,112,0.0,0.0,64,0.00,CLR,,0.00,WeatherDisplay:10.37,2013-02-04 02:58:00,
2013-02-03 18:03:00,6.3,-3.3,29.23,SSE,158,0.0,0.0,64,0.00,CLR,,0.00,WeatherDisplay:10.37,2013-02-04 03:03:00,
2013-02-03 18:08:00,6.3,-3.3,29.23,SSE,158,0.0,0.0,64,0.00,CLR,,0.00,WeatherDisplay:10.37,2013-02-04 03:08:00,
2013-02-03 18:13:00,6.3,-3.3,29.23,ESE,112,0.0,0.0,64,0.00,CLR,,0.00,WeatherDisplay:10.37,2013-02-04 03:13:00,
2013-02-03 18:18:00,6.4,-3.2,29.23,East,90,0.0,0.0,64,0.00,CLR,,0.00,WeatherDisplay:10.37,2013-02-04 03:18:00,
2013-02-03 18:23:00,6.4,-3.2,29.23,NNE,22,0.0,0.0,64,0.00,CLR,,0.00,WeatherDisplay:10.37,2013-02-04 03:23:00,
2013-02-03 18:28:00,6.6,-3.0,29.23,NNW,338,0.0,0.0,64,0.00,CLR,,0.00,WeatherDisplay:10.37,2013-02-04 03:28:00,
2013-02-03 18:33:00,6.8,-2.8,29.23,NNE,22,0.0,0.0,64,0.00,CLR,,0.00,WeatherDisplay:10.37,2013-02-04 03:33:00,
2013-02-03 18:38:00,6.8,-2.8,29.23,ENE,68,0.0,0.0,64,0.00,CLR,,0.00,WeatherDisplay:10.37,2013-02-04 03:38:00,
2013-02-03 18:43:00,7.0,-2.6,29.23,NNE,22,0.0,2.3,64,0.00,CLR,,0.00,WeatherDisplay:10.37,2013-02-04 03:43:00,
2013-02-03 18:48:00,7.0,-2.6,29.23,NE,45,0.0,0.0,64,0.00,CLR,,0.00,WeatherDisplay:10.37,2013-02-04 03:48:00,
2013-02-03 18:53:00,7.2,-2.5,29.23,NE,45,0.0,2.3,64,0.00,CLR,,0.00,WeatherDisplay:10.37,2013-02-04 03:53:00,
2013-02-03 18:58:00,7.2,-2.5,29.23,North,0,0.0,0.0,64,0.00,CLR,,0.00,WeatherDisplay:10.37,2013-02-04 03:58:00,
2013-02-03 19:03:00,7.2,-2.5,29.23,NE,45,0.0,0.0,64,0.00,CLR,,0.00,WeatherDisplay:10.37,2013-02-04 04:03:00,
2013-02-03 19:08:00,7.2,-2.5,29.23,NE,45,1.1,2.3,64,0.00,CLR,,0.00,WeatherDisplay:10.37,2013-02-04 04:08:00,
2013-02-03 19:13:00,7.2,-2.5,29.23,NNE,22,2.6,3.5,64,0.00,CLR,,0.00,WeatherDisplay:10.37,2013-02-04 04:13:00,
2013-02-03 19:18:00,7.2,-2.5,29.23,NE,45,0.0,0.0,64,0.00,CLR,,0.00,WeatherDisplay:10.37,2013-02-04 04:18:00,
2013-02-03 19:23:00,7.2,-2.5,29.23,NE,45,0.9,2.3,64,0.00,CLR,,0.00,WeatherDisplay:10.37,2013-02-04 04:23:00,
2013-02-03 19:28:00,7.0,-2.6,29.23,NNW,338,0.9,2.3,64,0.00,CLR,,0.00,WeatherDisplay:10.37,2013-02-04 04:28:00,
2013-02-03 19:33:00,7.0,-2.6,29.23,NNW,338,2.4,3.5,64,0.00,CLR,,0.00,WeatherDisplay:10.37,2013-02-04 04:33:00,
2013-02-03 19:38:00,6.8,-2.8,29.23,NNW,338,2.0,2.3,64,0.00,CLR,,0.00,WeatherDisplay:10.37,2013-02-04 04:38:00,
2013-02-03 19:43:00,6.8,-2.8,29.23,North,0,1.4,2.3,64,0.00,CLR,,0.00,WeatherDisplay:10.37,2013-02-04 04:43:00,
2013-02-03 19:48:00,6.6,-3.0,29.23,WNW,292,1.4,2.3,64,0.00,CLR,,0.00,WeatherDisplay:10.37,2013-02-04 04:48:00,
2013-02-03 19:53:00,6.4,-3.2,29.23,NNW,338,1.1,1.1,64,0.00,CLR,,0.00,WeatherDisplay:10.37,2013-02-04 04:53:00,
2013-02-03 19:58:00,6.4,-3.2,29.23,NNW,338,0.0,0.0,64,0.00,CLR,,0.00,WeatherDisplay:10.37,2013-02-04 04:58:00,
2013-02-03 20:00:00,6.4,-3.2,29.23,NNW,338,0.9,1.1,64,0.00,CLR,,0.00,WeatherDisplay:10.37,2013-02-04 05:00:00,
2013-02-03 20:01:00,6.4,-3.2,29.23,WNW,292,1.4,1.4,64,0.00,CLR,,0.00,WeatherDisplay:10.37,2013-02-04 05:01:00,
2013-02-03 20:03:00,6.4,-3.2,29.23,WNW,292,1.1,2.3,64,0.00,CLR,,0.00,WeatherDisplay:10.37,2013-02-04 05:03:00,
2013-02-03 20:08:00,6.3,-3.3,29.23,WNW,292,0.0,0.0,64,0.00,CLR,,0.00,WeatherDisplay:10.37,2013-02-04 05:08:00,
2013-02-03 20:13:00,6.3,-3.3,29.23,SSW,202,0.0,0.0,64,0.00,CLR,,0.00,WeatherDisplay:10.37,2013-02-04 05:13:00,
2013-02-03 20:18:00,6.3,-3.3,29.23,WNW,292,0.0,0.0,64,0.00,CLR,,0.00,WeatherDisplay:10.37,2013-02-04 05:18:00,
2013-02-03 20:23:00,6.4,-3.2,29.23,WNW,292,0.0,0.0,64,0.00,CLR,,0.00,WeatherDisplay:10.37,2013-02-04 05:23:00,
2013-02-03 20:28:00,6.4,-3.2,29.23,WNW,292,0.0,0.0,64,0.00,CLR,,0.00,WeatherDisplay:10.37,2013-02-04 05:28:00,
2013-02-03 20:33:00,6.6,-3.0,29.23,WNW,292,0.0,0.0,64,0.00,CLR,,0.00,WeatherDisplay:10.37,2013-02-04 05:33:00,
2013-02-03 20:38:00,6.8,-2.8,29.23,WNW,292,0.9,2.3,64,0.00,CLR,,0.00,WeatherDisplay:10.37,2013-02-04 05:38:00,
2013-02-03 20:43:00,7.0,-2.6,29.23,WNW,292,1.4,1.4,64,0.00,CLR,,0.00,WeatherDisplay:10.37,2013-02-04 05:43:00,
2013-02-03 20:48:00,7.0,-2.6,29.23,WNW,292,0.0,0.0,64,0.00,CLR,,0.00,WeatherDisplay:10.37,2013-02-04 05:48:00,
2013-02-03 20:53:00,7.2,-2.5,29.23,WNW,292,0.0,0.0,64,0.00,CLR,,0.00,WeatherDisplay:10.37,2013-02-04 05:53:00,
2013-02-03 20:58:00,7.2,-2.5,29.23,WNW,292,0.0,0.0,64,0.00,CLR,,0.00,WeatherDisplay:10.37,2013-02-04 05:58:00,
2013-02-03 21:03:00,7.2,-2.5,29.23,WNW,292,0.0,0.0,64,0.00,CLR,,0.00,WeatherDisplay:10.37,2013-02-04 06:03:00,
2013-02-03 21:08:00,7.3,-2.3,29.23,WNW,292,0.0,0.0,64,0.00,CLR,,0.00,WeatherDisplay:10.37,2013-02-04 06:08:00,
2013-02-03 21:13:00,7.5,-2.1,29.23,WNW,292,0.0,0.0,64,0.00,CLR,,0.00,WeatherDisplay:10.37,2013-02-04 06:13:00,
2013-02-03 21:18:00,7.5,-2.1,29.23,WNW,292,0.0,1.1,64,0.00,CLR,,0.00,WeatherDisplay:10.37,2013-02-04 06:18:00,
2013-02-03 21:23:00,7.7,-2.0,29.29,WNW,292,1.4,2.3,64,0.00,CLR,,0.00,WeatherDisplay:10.37,2013-02-04 06:23:00,
2013-02-03 21:28:00,7.7,-2.0,29.29,NNE,22,2.4,2.4,64,0.00,CLR,,0.00,WeatherDisplay:10.37,2013-02-04 06:28:00,
2013-02-03 21:33:00,7.7,-2.0,29.29,NE,45,0.9,2.3,64,0.00,CLR,,0.00,WeatherDisplay:10.37,2013-02-04 06:33:00,
2013-02-03 21:38:00,7.7,-2.0,29.29,NNW,338,0.0,0.0,64,0.00,CLR,,0.00,WeatherDisplay:10.37,2013-02-04 06:38:00,
2013-02-03 21:43:00,7.7,-2.0,29.29,NNE,22,2.9,3.5,64,0.00,CLR,,0.00,WeatherDisplay:10.37,2013-02-04 06:43:00,
2013-02-03 21:48:00,7.9,-1.8,29.29,NNE,22,2.4,2.9,64,0.00,CLR,,0.00,WeatherDisplay:10.37,2013-02-04 06:48:00,
2013-02-03 21:53:00,7.9,-1.8,29.29,NNE,22,3.3,4.6,64,0.00,CLR,,0.00,WeatherDisplay:10.37,2013-02-04 06:53:00,
2013-02-03 21:58:00,7.7,-2.0,29.29,ENE,68,0.0,0.0,64,0.00,CLR,,0.00,WeatherDisplay:10.37,2013-02-04 06:58:00,
2013-02-03 22:03:00,7.7,-2.0,29.29,North,0,0.0,0.0,64,0.00,CLR,,0.00,WeatherDisplay:10.37,2013-02-04 07:03:00,
2013-02-03 22:08:00,7.7,-2.0,29.29,NNW,338,0.0,1.1,64,0.00,CLR,,0.00,WeatherDisplay:10.37,2013-02-04 07:08:00,
2013-02-03 22:13:00,7.7,-2.0,29.29,NNW,338,0.0,2.3,64,0.00,CLR,,0.00,WeatherDisplay:10.37,2013-02-04 07:13:00,
2013-02-03 22:18:00,7.7,-2.0,29.29,WNW,292,1.6,2.4,64,0.00,CLR,,0.00,WeatherDisplay:10.37,2013-02-04 07:18:00,
2013-02-03 22:23:00,7.5,-2.1,29.32,WNW,292,0.9,1.1,64,0.00,CLR,,0.00,WeatherDisplay:10.37,2013-02-04 07:23:00,
2013-02-03 22:28:00,7.5,-2.1,29.32,NNE,22,1.4,2.3,64,0.00,CLR,,0.00,WeatherDisplay:10.37,2013-02-04 07:28:00,
2013-02-03 22:33:00,7.5,-2.1,29.32,NNW,338,0.0,1.1,64,0.00,CLR,,0.00,WeatherDisplay:10.37,2013-02-04 07:33:00,
2013-02-03 22:38:00,7.5,-2.1,29.32,NE,45,2.0,2.3,64,0.00,CLR,,0.00,WeatherDisplay:10.37,2013-02-04 07:38:00,
2013-02-03 22:43:00,7.5,-2.1,29.32,ENE,68,1.1,2.3,64,0.00,CLR,,0.00,WeatherDisplay:10.37,2013-02-04 07:43:00,
2013-02-03 22:48:00,7.3,-2.3,29.32,ENE,68,0.0,0.0,64,0.00,CLR,,0.00,WeatherDisplay:10.37,2013-02-04 07:48:00,
2013-02-03 22:53:00,7.2,-2.5,29.32,ENE,68,0.0,0.0,64,0.00,CLR,,0.00,WeatherDisplay:10.37,2013-02-04 07:53:00,
2013-02-03 22:58:00,7.2,-2.5,29.32,ENE,68,0.0,0.0,64,0.00,CLR,,0.00,WeatherDisplay:10.37,2013-02-04 07:58:00,
2013-02-03 23:03:00,7.0,-2.6,29.32,ENE,68,0.0,0.0,64,0.00,CLR,,0.00,WeatherDisplay:10.37,2013-02-04 08:03:00,
2013-02-03 23:08:00,7.0,-2.6,29.32,ENE,68,0.0,0.0,64,0.00,CLR,,0.00,WeatherDisplay:10.37,2013-02-04 08:08:00,
2013-02-03 23:13:00,6.8,-2.8,29.32,ENE,68,0.0,0.0,64,0.00,CLR,,0.00,WeatherDisplay:10.37,2013-02-04 08:13:00,
2013-02-03 23:18:00,6.8,-2.8,29.32,ENE,68,0.0,0.0,64,0.00,CLR,,0.00,WeatherDisplay:10.37,2013-02-04 08:18:00,
2013-02-03 23:23:00,6.4,-3.2,29.32,East,90,0.0,0.0,64,0.00,CLR,,0.00,WeatherDisplay:10.37,2013-02-04 08:23:00,
2013-02-03 23:28:00,6.4,-3.2,29.32,ESE,112,0.0,0.0,64,0.00,CLR,,0.00,WeatherDisplay:10.37,2013-02-04 08:28:00,
2013-02-03 23:33:00,6.3,-3.3,29.32,ESE,112,0.0,0.0,64,0.00,CLR,,0.00,WeatherDisplay:10.37,2013-02-04 08:33:00,
2013-02-03 23:38:00,6.1,-3.5,29.32,ESE,112,0.0,0.0,64,0.00,CLR,,0.00,WeatherDisplay:10.37,2013-02-04 08:38:00,
2013-02-03 23:43:00,5.9,-3.7,29.32,SE,135,0.0,0.0,64,0.00,CLR,,0.00,WeatherDisplay:10.37,2013-02-04 08:43:00,
2013-02-03 23:48:00,5.7,-3.8,29.32,South,180,0.0,0.0,64,0.00,CLR,,0.00,WeatherDisplay:10.37,2013-02-04 08:48:00,
2013-02-03 23:54:00,5.7,-3.8,29.32,SSW,202,0.0,0.0,64,0.00,CLR,,0.00,WeatherDisplay:10.37,2013-02-04 08:54:00,
2013-02-03 23:59:00,5.5,-4.0,29.32,WSW,248,0.0,0.0,64,0.00,CLR,,0.00,WeatherDisplay:10.37,2013-02-04 08:59:00,